Station Historical Data
Daily Summary for December 2, 2017 Units:  English    Metric   Both
Next Day »
Daily Weekly Monthly Yearly Custom
  High: Low: Average:
Temperature: 53.5 °F 42.4 °F 47.1 °F
Dew Point: 43.6 °F 28.5 °F 37.2 °F
Humidity: 90% 51% 69%
Wind Speed: 18.0mph 0.0mph 2.8mph
Wind Gust: 18.0mph - -
Wind- - SE
Pressure: 30.12 in 30.02 in -
Precipitation: 0.00 in    
Historical Graphs
 
 
Tabular Data for December 2, 2017
Time Temperature Dew Point Pressure Wind Wind Speed Wind Gust Humidity Rainfall Rate (Hourly) solar Conditions
00:07 44.7 °F 34.0 °F 30.11 in East 4.0 mph 11.0 mph 66% 0.00 in 0.00 W/m2
00:12 44.7 °F 34.0 °F 30.11 in East 5.0 mph 12.0 mph 66% 0.00 in 0.00 W/m2
00:17 44.7 °F 33.3 °F 30.11 in East 2.0 mph 11.0 mph 64% 0.00 in 0.00 W/m2
00:27 44.7 °F 33.3 °F 30.11 in Calm   12.0 mph 64% 0.00 in 0.00 W/m2
00:32 44.6 °F 33.2 °F 30.11 in East 5.0 mph 12.0 mph 64% 0.00 in 0.00 W/m2
00:37 44.5 °F 33.5 °F 30.11 in ESE 4.0 mph 8.0 mph 65% 0.00 in 0.00 W/m2
00:42 44.5 °F 33.9 °F 30.11 in ESE 4.0 mph 8.0 mph 66% 0.00 in 0.00 W/m2
00:47 44.4 °F 34.1 °F 30.11 in ESE 4.0 mph 9.0 mph 67% 0.00 in 0.00 W/m2
00:53 44.3 °F 33.3 °F 30.11 in ESE 2.0 mph 8.0 mph 65% 0.00 in 0.00 W/m2
00:58 44.2 °F 32.8 °F 30.10 in ESE 8.0 mph 9.0 mph 64% 0.00 in 0.00 W/m2
01:03 44.2 °F 33.2 °F 30.11 in ESE 1.0 mph 8.0 mph 65% 0.00 in 0.00 W/m2
01:08 44.1 °F 33.9 °F 30.11 in Calm   7.0 mph 67% 0.00 in 0.00 W/m2
01:13 44.1 °F 33.9 °F 30.11 in ESE 6.0 mph 9.0 mph 67% 0.00 in 0.00 W/m2
01:18 44.0 °F 33.8 °F 30.11 in Calm   8.0 mph 67% 0.00 in 0.00 W/m2
01:28 43.8 °F 33.2 °F 30.11 in Calm   13.0 mph 66% 0.00 in 0.00 W/m2
01:33 43.7 °F 33.1 °F 30.10 in ESE 1.0 mph 7.0 mph 66% 0.00 in 0.00 W/m2
01:38 43.7 °F 32.7 °F 30.11 in ESE 2.0 mph 5.0 mph 65% 0.00 in 0.00 W/m2
01:48 43.6 °F 32.2 °F 30.11 in Calm   8.0 mph 64% 0.00 in 0.00 W/m2
01:53 43.5 °F 32.5 °F 30.11 in Calm   11.0 mph 65% 0.00 in 0.00 W/m2
01:58 43.5 °F 32.5 °F 30.11 in Calm   6.0 mph 65% 0.00 in 0.00 W/m2
02:08 43.3 °F 32.7 °F 30.11 in ESE 6.0 mph 9.0 mph 66% 0.00 in 0.00 W/m2
02:13 43.2 °F 33.0 °F 30.11 in Calm   6.0 mph 67% 0.00 in 0.00 W/m2
02:28 42.9 °F 32.7 °F 30.11 in Calm   5.0 mph 67% 0.00 in 0.00 W/m2
02:38 42.7 °F 32.5 °F 30.11 in Calm   6.0 mph 67% 0.00 in 0.00 W/m2
02:43 42.6 °F 32.8 °F 30.11 in ESE 5.0 mph 6.0 mph 68% 0.00 in 0.00 W/m2
02:53 42.5 °F 32.3 °F 30.11 in ESE 1.0 mph 7.0 mph 67% 0.00 in 0.00 W/m2
02:58 42.4 °F 32.6 °F 30.11 in ESE 6.0 mph 8.0 mph 68% 0.00 in 0.00 W/m2
03:03 42.4 °F 31.5 °F 30.11 in ESE 5.0 mph 8.0 mph 65% 0.00 in 0.00 W/m2
03:08 42.4 °F 31.5 °F 30.11 in ESE 2.0 mph 8.0 mph 65% 0.00 in 0.00 W/m2
03:13 42.4 °F 31.9 °F 30.10 in Calm   7.0 mph 66% 0.00 in 0.00 W/m2
03:18 42.4 °F 31.1 °F 30.10 in ESE 4.0 mph 7.0 mph 64% 0.00 in 0.00 W/m2
03:23 42.4 °F 31.5 °F 30.10 in Calm   8.0 mph 65% 0.00 in 0.00 W/m2
03:28 42.4 °F 31.5 °F 30.10 in Calm   12.0 mph 65% 0.00 in 0.00 W/m2
03:33 42.4 °F 31.1 °F 30.10 in East 2.0 mph 9.0 mph 64% 0.00 in 0.00 W/m2
03:43 42.4 °F 30.7 °F 30.10 in ESE 6.0 mph 9.0 mph 63% 0.00 in 0.00 W/m2
03:48 42.4 °F 30.7 °F 30.10 in ESE 6.0 mph 11.0 mph 63% 0.00 in 0.00 W/m2
03:53 42.4 °F 30.7 °F 30.10 in ESE 9.0 mph 11.0 mph 63% 0.00 in 0.00 W/m2
03:58 42.4 °F 31.1 °F 30.09 in ESE 2.0 mph 12.0 mph 64% 0.00 in 0.00 W/m2
04:03 42.4 °F 29.5 °F 30.09 in East 11.0 mph 11.0 mph 60% 0.00 in 0.00 W/m2
04:08 42.5 °F 30.4 °F 30.09 in East 5.0 mph 14.0 mph 62% 0.00 in 0.00 W/m2
04:13 42.5 °F 29.6 °F 30.09 in ESE 7.0 mph 12.0 mph 60% 0.00 in 0.00 W/m2
04:28 42.6 °F 30.1 °F 30.09 in ESE 1.0 mph 12.0 mph 61% 0.00 in 0.00 W/m2
04:39 42.6 °F 29.3 °F 30.10 in ESE 5.0 mph 11.0 mph 59% 0.00 in 0.00 W/m2
04:44 42.7 °F 30.6 °F 30.09 in ESE 6.0 mph 11.0 mph 62% 0.00 in 0.00 W/m2
04:49 42.7 °F 29.8 °F 30.09 in ESE 1.0 mph 13.0 mph 60% 0.00 in 0.00 W/m2
05:04 42.7 °F 29.8 °F 30.09 in ESE 6.0 mph 12.0 mph 60% 0.00 in 0.00 W/m2
05:14 42.7 °F 29.8 °F 30.09 in ESE 2.0 mph 8.0 mph 60% 0.00 in 0.00 W/m2
05:19 42.7 °F 29.8 °F 30.10 in ESE 8.0 mph 12.0 mph 60% 0.00 in 0.00 W/m2
05:24 42.6 °F 29.7 °F 30.10 in Calm   7.0 mph 60% 0.00 in 0.00 W/m2
05:29 42.6 °F 30.1 °F 30.10 in Calm   7.0 mph 61% 0.00 in 0.00 W/m2
05:44 42.6 °F 29.7 °F 30.09 in Calm   8.0 mph 60% 0.00 in 0.00 W/m2
05:54 42.5 °F 29.6 °F 30.09 in Calm   9.0 mph 60% 0.00 in 0.00 W/m2
06:04 42.5 °F 29.2 °F 30.09 in ESE 2.0 mph 9.0 mph 59% 0.00 in 0.00 W/m2
06:09 42.5 °F 29.2 °F 30.10 in ESE 4.0 mph 11.0 mph 59% 0.00 in 0.00 W/m2
06:14 42.5 °F 29.2 °F 30.09 in ESE 7.0 mph 13.0 mph 59% 0.00 in 0.00 W/m2
06:19 42.6 °F 28.9 °F 30.10 in East 6.0 mph 11.0 mph 58% 0.00 in 0.00 W/m2
06:29 42.7 °F 28.5 °F 30.10 in ESE 7.0 mph 12.0 mph 57% 0.00 in 0.00 W/m2
06:34 42.8 °F 29.5 °F 30.10 in Calm   11.0 mph 59% 0.00 in 0.00 W/m2
06:39 42.8 °F 29.1 °F 30.10 in Calm   11.0 mph 58% 0.00 in 0.00 W/m2
06:44 42.8 °F 29.5 °F 30.10 in ESE 1.0 mph 9.0 mph 59% 0.00 in 0.00 W/m2
06:49 42.8 °F 29.1 °F 30.10 in ESE 6.0 mph 13.0 mph 58% 0.00 in 0.00 W/m2
06:59 42.8 °F 29.1 °F 30.10 in ESE 12.0 mph 14.0 mph 58% 0.00 in 5.00 W/m2
07:04 42.9 °F 29.2 °F 30.11 in ESE 6.0 mph 9.0 mph 58% 0.00 in 5.00 W/m2
07:14 42.9 °F 29.6 °F 30.11 in East 7.0 mph 13.0 mph 59% 0.00 in 14.00 W/m2
07:24 42.9 °F 28.7 °F 30.11 in Calm   12.0 mph 57% 0.00 in 25.00 W/m2
07:29 43.0 °F 29.2 °F 30.11 in East 9.0 mph 12.0 mph 58% 0.00 in 25.00 W/m2
07:30 43.0 °F 29.2 °F 30.11 in East 8.0 mph 12.0 mph 58% 0.00 in 25.00 W/m2
07:35 43.0 °F 29.2 °F 30.11 in East 6.0 mph 9.0 mph 58% 0.00 in 26.00 W/m2
07:45 43.1 °F 29.3 °F 30.11 in ESE 1.0 mph 8.0 mph 58% 0.00 in 54.00 W/m2
07:50 43.2 °F 29.4 °F 30.11 in Calm   9.0 mph 58% 0.00 in 46.00 W/m2
07:55 43.3 °F 29.1 °F 30.11 in ESE 4.0 mph 11.0 mph 57% 0.00 in 49.00 W/m2
08:00 43.3 °F 30.0 °F 30.11 in ESE 5.0 mph 12.0 mph 59% 0.00 in 54.00 W/m2
08:05 43.4 °F 29.6 °F 30.11 in ESE 6.0 mph 12.0 mph 58% 0.00 in 67.00 W/m2
08:20 43.8 °F 30.0 °F 30.12 in ESE 8.0 mph 11.0 mph 58% 0.00 in 104.00 W/m2
08:30 44.1 °F 31.1 °F 30.12 in Calm   9.0 mph 60% 0.00 in 100.00 W/m2
08:35 44.3 °F 31.3 °F 30.11 in Calm   11.0 mph 60% 0.00 in 144.00 W/m2
08:40 44.5 °F 31.9 °F 30.12 in ESE 2.0 mph 11.0 mph 61% 0.00 in 132.00 W/m2
08:55 45.1 °F 30.8 °F 30.11 in ESE 5.0 mph 8.0 mph 57% 0.00 in 167.00 W/m2
09:10 45.8 °F 31.0 °F 30.11 in ESE 4.0 mph 8.0 mph 56% 0.00 in 135.00 W/m2
09:15 46.0 °F 31.6 °F 30.12 in Calm   8.0 mph 57% 0.00 in 144.00 W/m2
09:20 46.2 °F 31.8 °F 30.11 in ESE 4.0 mph 11.0 mph 57% 0.00 in 163.00 W/m2
09:25 46.3 °F 31.5 °F 30.12 in ESE 1.0 mph 8.0 mph 56% 0.00 in 269.00 W/m2
09:30 46.5 °F 32.5 °F 30.12 in Calm   9.0 mph 58% 0.00 in 287.00 W/m2
09:35 46.6 °F 32.6 °F 30.12 in Calm   8.0 mph 58% 0.00 in 218.00 W/m2
09:40 46.8 °F 32.8 °F 30.12 in Calm   9.0 mph 58% 0.00 in 316.00 W/m2
09:45 47.0 °F 33.0 °F 30.12 in ESE 4.0 mph 7.0 mph 58% 0.00 in 200.00 W/m2
09:50 47.2 °F 33.6 °F 30.11 in Calm     59% 0.00 in 339.00 W/m2
09:55 47.4 °F 33.0 °F 30.12 in Calm     57% 0.00 in 364.00 W/m2
09:56 47.5 °F 33.0 °F 30.12 in ESE 2.0 mph 7.0 mph 57% 0.00 in 367.00 W/m2
10:01 47.7 °F 33.2 °F 30.12 in Calm     57% 0.00 in 352.00 W/m2
10:11 48.5 °F 34.0 °F 30.12 in Calm     57% 0.00 in 376.00 W/m2
10:15 48.8 °F 35.1 °F 30.12 in Calm   5.0 mph 59% 0.00 in 364.00 W/m2
10:20 49.1 °F 35.0 °F 30.12 in Calm     58% 0.00 in 320.00 W/m2
10:25 49.5 °F 33.1 °F 30.12 in Calm   7.0 mph 53% 0.00 in 362.00 W/m2
10:30 49.8 °F 34.3 °F 30.12 in Calm     55% 0.00 in 241.00 W/m2
10:35 50.1 °F 33.2 °F 30.12 in Calm   6.0 mph 52% 0.00 in 438.00 W/m2
10:40 50.4 °F 33.5 °F 30.12 in Calm   5.0 mph 52% 0.00 in 420.00 W/m2
10:45 50.7 °F 33.7 °F 30.12 in Calm     52% 0.00 in 450.00 W/m2
10:55 51.3 °F 34.3 °F 30.12 in SE 5.0 mph 7.0 mph 52% 0.00 in 241.00 W/m2
11:00 51.6 °F 34.1 °F 30.11 in Calm   7.0 mph 51% 0.00 in 287.00 W/m2
11:05 51.8 °F 35.7 °F 30.11 in Calm     54% 0.00 in 410.00 W/m2
11:10 52.0 °F 36.3 °F 30.11 in Calm     55% 0.00 in 352.00 W/m2
11:15 52.2 °F 37.0 °F 30.11 in Calm   7.0 mph 56% 0.00 in 388.00 W/m2
11:20 52.4 °F 37.6 °F 30.10 in South 4.0 mph 7.0 mph 57% 0.00 in 485.00 W/m2
11:30 52.8 °F 37.5 °F 30.10 in South 5.0 mph 9.0 mph 56% 0.00 in 425.00 W/m2
11:35 53.0 °F 37.7 °F 30.10 in Calm   8.0 mph 56% 0.00 in 239.00 W/m2
11:40 53.1 °F 38.7 °F 30.10 in South 5.0 mph 7.0 mph 58% 0.00 in 497.00 W/m2
11:45 53.2 °F 38.8 °F 30.10 in South 6.0 mph 8.0 mph 58% 0.00 in 473.00 W/m2
11:55 53.5 °F 39.1 °F 30.10 in SW 5.0 mph 8.0 mph 58% 0.00 in 258.00 W/m2
12:00 53.5 °F 39.5 °F 30.09 in South 3.0 mph 7.0 mph 59% 0.00 in 323.00 W/m2
12:05 53.5 °F 39.5 °F 30.09 in South 6.0 mph 7.0 mph 59% 0.00 in 468.00 W/m2
12:10 53.5 °F 39.5 °F 30.09 in SSE 6.0 mph 8.0 mph 59% 0.00 in 276.00 W/m2
12:15 53.5 °F 40.0 °F 30.09 in Calm   7.0 mph 60% 0.00 in 265.00 W/m2
12:22 53.5 °F 40.4 °F 30.08 in South 2.0 mph 9.0 mph 61% 0.00 in 272.00 W/m2
12:28 53.5 °F 40.4 °F 30.09 in Calm   7.0 mph 61% 0.00 in 239.00 W/m2
12:33 53.5 °F 40.4 °F 30.09 in South 4.0 mph 6.0 mph 61% 0.00 in 188.00 W/m2
12:43 53.5 °F 40.8 °F 30.08 in Calm     62% 0.00 in 258.00 W/m2
12:53 53.4 °F 40.7 °F 30.08 in Calm     62% 0.00 in 202.00 W/m2
12:58 53.4 °F 41.5 °F 30.08 in Calm     64% 0.00 in 172.00 W/m2
13:03 53.4 °F 41.5 °F 30.08 in Calm   5.0 mph 64% 0.00 in 185.00 W/m2
13:18 53.3 °F 41.8 °F 30.07 in Calm   4.0 mph 65% 0.00 in 167.00 W/m2
13:23 53.3 °F 42.2 °F 30.07 in Calm   4.0 mph 66% 0.00 in 188.00 W/m2
13:28 53.2 °F 41.8 °F 30.06 in South 5.0 mph 7.0 mph 65% 0.00 in 181.00 W/m2
13:38 53.1 °F 42.1 °F 30.06 in Calm     66% 0.00 in 144.00 W/m2
13:44 53.1 °F 42.1 °F 30.06 in Calm     66% 0.00 in 141.00 W/m2
13:54 53.0 °F 42.7 °F 30.06 in Calm   6.0 mph 68% 0.00 in 113.00 W/m2
13:59 52.9 °F 42.3 °F 30.05 in Calm     67% 0.00 in 111.00 W/m2
14:14 52.8 °F 42.9 °F 30.05 in Calm     69% 0.00 in 141.00 W/m2
14:19 52.7 °F 43.2 °F 30.06 in Calm     70% 0.00 in 167.00 W/m2
14:24 52.6 °F 43.5 °F 30.06 in Calm     71% 0.00 in 137.00 W/m2
14:29 52.6 °F 43.1 °F 30.06 in Calm   1.0 mph 70% 0.00 in 128.00 W/m2
14:34 52.6 °F 43.1 °F 30.05 in South 5.0 mph 5.0 mph 70% 0.00 in 111.00 W/m2
14:44 52.4 °F 42.9 °F 30.05 in Calm     70% 0.00 in 91.00 W/m2
14:49 52.4 °F 43.3 °F 30.05 in South 4.0 mph 6.0 mph 71% 0.00 in 91.00 W/m2
14:54 52.3 °F 43.2 °F 30.05 in South 4.0 mph 5.0 mph 71% 0.00 in 91.00 W/m2
14:59 52.2 °F 43.1 °F 30.05 in Calm     71% 0.00 in 79.00 W/m2
15:04 52.1 °F 43.4 °F 30.05 in South 5.0 mph 5.0 mph 72% 0.00 in 77.00 W/m2
15:09 52.0 °F 43.3 °F 30.05 in Calm   1.0 mph 72% 0.00 in 77.00 W/m2
15:14 51.9 °F 43.2 °F 30.05 in Calm     72% 0.00 in 74.00 W/m2
15:19 51.8 °F 43.1 °F 30.05 in Calm     72% 0.00 in 63.00 W/m2
15:24 51.7 °F 43.3 °F 30.05 in Calm     73% 0.00 in 58.00 W/m2
15:29 51.6 °F 43.2 °F 30.05 in Calm   1.0 mph 73% 0.00 in 51.00 W/m2
15:34 51.5 °F 43.5 °F 30.05 in Calm     74% 0.00 in 46.00 W/m2
15:44 51.2 °F 43.6 °F 30.04 in Calm   4.0 mph 75% 0.00 in 37.00 W/m2
15:54 50.8 °F 43.2 °F 30.04 in Calm   6.0 mph 75% 0.00 in 33.00 W/m2
15:59 50.7 °F 43.1 °F 30.04 in SSE 6.0 mph 6.0 mph 75% 0.00 in 28.00 W/m2
16:04 50.5 °F 42.9 °F 30.04 in Calm   8.0 mph 75% 0.00 in 21.00 W/m2
16:09 50.3 °F 43.0 °F 30.04 in SSE 1.0 mph 7.0 mph 76% 0.00 in 21.00 W/m2
16:14 50.2 °F 42.9 °F 30.04 in SSE 4.0 mph 5.0 mph 76% 0.00 in 18.00 W/m2
16:19 50.0 °F 42.7 °F 30.04 in Calm   5.0 mph 76% 0.00 in 14.00 W/m2
16:29 49.7 °F 42.8 °F 30.04 in Calm   6.0 mph 77% 0.00 in 5.00 W/m2
16:39 49.4 °F 42.8 °F 30.04 in Calm     78% 0.00 in 0.00 W/m2
16:44 49.2 °F 42.6 °F 30.04 in Calm   6.0 mph 78% 0.00 in 0.00 W/m2
16:50 49.0 °F 42.8 °F 30.04 in SSE 4.0 mph 6.0 mph 79% 0.00 in 0.00 W/m2
16:55 48.8 °F 42.6 °F 30.04 in Calm   7.0 mph 79% 0.00 in 0.00 W/m2
17:00 48.7 °F 42.2 °F 30.04 in SSE 2.0 mph 7.0 mph 78% 0.00 in 0.00 W/m2
17:05 48.6 °F 42.1 °F 30.04 in Calm   7.0 mph 78% 0.00 in 0.00 W/m2
17:10 48.5 °F 42.0 °F 30.04 in SSE 5.0 mph 8.0 mph 78% 0.00 in 0.00 W/m2
17:15 48.3 °F 41.8 °F 30.04 in SSE 1.0 mph 9.0 mph 78% 0.00 in 0.00 W/m2
17:20 48.2 °F 41.7 °F 30.04 in Calm   7.0 mph 78% 0.00 in 0.00 W/m2
17:25 48.1 °F 41.9 °F 30.04 in Calm   8.0 mph 79% 0.00 in 0.00 W/m2
17:40 47.9 °F 41.4 °F 30.04 in SSE 6.0 mph 8.0 mph 78% 0.00 in 0.00 W/m2
17:45 47.8 °F 41.6 °F 30.04 in SSE 2.0 mph 8.0 mph 79% 0.00 in 0.00 W/m2
17:50 47.8 °F 41.6 °F 30.04 in SSE 5.0 mph 8.0 mph 79% 0.00 in 0.00 W/m2
17:55 47.8 °F 41.3 °F 30.03 in SSE 6.0 mph 10.0 mph 78% 0.00 in 0.00 W/m2
18:00 47.7 °F 41.2 °F 30.03 in Calm   10.0 mph 78% 0.00 in 0.00 W/m2
18:05 47.8 °F 41.3 °F 30.03 in SSE 2.0 mph 10.0 mph 78% 0.00 in 0.00 W/m2
18:10 47.8 °F 41.3 °F 30.03 in Calm   9.0 mph 78% 0.00 in 0.00 W/m2
18:15 47.8 °F 41.3 °F 30.03 in Calm   9.0 mph 78% 0.00 in 0.00 W/m2
18:25 47.8 °F 41.6 °F 30.03 in SSE 4.0 mph 8.0 mph 79% 0.00 in 0.00 W/m2
18:30 47.8 °F 41.6 °F 30.03 in SSE 4.0 mph 6.0 mph 79% 0.00 in 0.00 W/m2
18:35 47.8 °F 41.6 °F 30.03 in SSE 4.0 mph 7.0 mph 79% 0.00 in 0.00 W/m2
18:45 47.7 °F 41.8 °F 30.04 in Calm   5.0 mph 80% 0.00 in 0.00 W/m2
18:50 47.6 °F 41.8 °F 30.04 in Calm     80% 0.00 in 0.00 W/m2
19:00 47.5 °F 41.7 °F 30.04 in Calm     80% 0.00 in 0.00 W/m2
19:05 47.4 °F 41.9 °F 30.04 in Calm   1.0 mph 81% 0.00 in 0.00 W/m2
19:10 47.4 °F 41.9 °F 30.04 in Calm     81% 0.00 in 0.00 W/m2
19:15 47.2 °F 42.0 °F 30.04 in Calm     82% 0.00 in 0.00 W/m2
19:20 47.2 °F 42.0 °F 30.04 in Calm     82% 0.00 in 0.00 W/m2
19:25 47.1 °F 41.9 °F 30.04 in SSE 1.0 mph 1.0 mph 82% 0.00 in 0.00 W/m2
19:30 47.0 °F 41.8 °F 30.04 in SSE 4.0 mph 7.0 mph 82% 0.00 in 0.00 W/m2
19:35 46.9 °F 42.0 °F 30.04 in Calm     83% 0.00 in 0.00 W/m2
19:40 46.8 °F 41.9 °F 30.04 in Calm     83% 0.00 in 0.00 W/m2
19:45 46.7 °F 42.1 °F 30.04 in Calm     84% 0.00 in 0.00 W/m2
19:50 46.7 °F 42.1 °F 30.04 in Calm     84% 0.00 in 0.00 W/m2
19:55 46.7 °F 42.4 °F 30.04 in Calm   9.0 mph 85% 0.00 in 0.00 W/m2
20:00 46.7 °F 42.4 °F 30.03 in SSE 6.0 mph 8.0 mph 85% 0.00 in 0.00 W/m2
20:05 46.8 °F 42.5 °F 30.03 in SSE 7.0 mph 10.0 mph 85% 0.00 in 0.00 W/m2
20:10 46.8 °F 42.5 °F 30.03 in SSE 5.0 mph 6.0 mph 85% 0.00 in 0.00 W/m2
20:15 46.9 °F 42.6 °F 30.03 in SSE 6.0 mph 8.0 mph 85% 0.00 in 0.00 W/m2
20:20 46.9 °F 42.6 °F 30.04 in SSE 7.0 mph 9.0 mph 85% 0.00 in 0.00 W/m2
20:25 47.0 °F 42.7 °F 30.03 in SSE 8.0 mph 8.0 mph 85% 0.00 in 0.00 W/m2
20:30 47.0 °F 42.7 °F 30.03 in SSE 9.0 mph 9.0 mph 85% 0.00 in 0.00 W/m2
20:35 47.0 °F 42.4 °F 30.04 in SSE 2.0 mph 2.0 mph 84% 0.00 in 0.00 W/m2
20:40 47.1 °F 42.5 °F 30.03 in SSE 7.0 mph 8.0 mph 84% 0.00 in 0.00 W/m2
20:45 47.1 °F 42.5 °F 30.04 in SSE 5.0 mph 8.0 mph 84% 0.00 in 0.00 W/m2
20:47 47.2 °F 42.3 °F 30.03 in SSE 1.0 mph 9.0 mph 83% 0.00 in 0.00 W/m2
20:52 47.2 °F 42.3 °F 30.03 in SSE 2.0 mph 12.0 mph 83% 0.00 in 0.00 W/m2
20:57 47.2 °F 42.0 °F 30.04 in SSE 6.0 mph 11.0 mph 82% 0.00 in 0.00 W/m2
21:02 47.3 °F 42.1 °F 30.04 in SSE 8.0 mph 13.0 mph 82% 0.00 in 0.00 W/m2
21:13 47.3 °F 41.8 °F 30.04 in SSE 8.0 mph 11.0 mph 81% 0.00 in 0.00 W/m2
21:18 47.3 °F 41.5 °F 30.03 in SSE 8.0 mph 13.0 mph 80% 0.00 in 0.00 W/m2
21:43 47.4 °F 41.2 °F 30.03 in South 6.0 mph 15.0 mph 79% 0.00 in 0.00 W/m2
21:48 47.4 °F 41.2 °F 30.03 in South 8.0 mph 14.0 mph 79% 0.00 in 0.00 W/m2
21:53 47.4 °F 41.2 °F 30.03 in SSE 7.0 mph 13.0 mph 79% 0.00 in 0.00 W/m2
21:58 47.4 °F 41.5 °F 30.03 in South 9.0 mph 10.0 mph 80% 0.00 in 0.00 W/m2
22:08 47.4 °F 41.9 °F 30.03 in South 9.0 mph 10.0 mph 81% 0.00 in 0.00 W/m2
22:13 47.3 °F 41.8 °F 30.03 in South 4.0 mph 12.0 mph 81% 0.00 in 0.00 W/m2
22:23 47.2 °F 42.3 °F 30.03 in SSE 4.0 mph 15.0 mph 83% 0.00 in 0.00 W/m2
22:28 47.1 °F 42.5 °F 30.02 in South 14.0 mph 14.0 mph 84% 0.00 in 0.00 W/m2
22:38 46.8 °F 42.5 °F 30.02 in Calm   17.0 mph 85% 0.00 in 0.00 W/m2
22:43 46.6 °F 42.3 °F 30.03 in Calm   12.0 mph 85% 0.00 in 0.00 W/m2
22:48 46.5 °F 42.2 °F 30.04 in Calm   4.0 mph 85% 0.00 in 0.00 W/m2
22:53 46.4 °F 42.1 °F 30.04 in SW 4.0 mph 9.0 mph 85% 0.00 in 0.00 W/m2
22:58 46.3 °F 42.0 °F 30.04 in Calm   6.0 mph 85% 0.00 in 0.00 W/m2
23:03 46.1 °F 42.2 °F 30.04 in Calm   8.0 mph 86% 0.00 in 0.00 W/m2
23:13 45.5 °F 40.3 °F 30.03 in South 4.0 mph 10.0 mph 82% 0.00 in 0.00 W/m2
23:23 45.1 °F 40.6 °F 30.04 in South 6.0 mph 9.0 mph 84% 0.00 in 0.00 W/m2
23:28 44.9 °F 40.7 °F 30.03 in Calm   12.0 mph 85% 0.00 in 0.00 W/m2
23:33 44.7 °F 40.8 °F 30.04 in Calm   11.0 mph 86% 0.00 in 0.00 W/m2
23:43 44.2 °F 40.9 °F 30.03 in South 7.0 mph 14.0 mph 88% 0.19 in 0.00 W/m2
23:53 43.8 °F 40.8 °F 30.03 in South 15.0 mph 15.0 mph 89% 0.07 in 0.00 W/m2
23:54 43.8 °F 40.8 °F 30.03 in SSE 18.0 mph 18.0 mph 89% 0.07 in 0.00 W/m2
23:59 43.6 °F 40.9 °F 30.03 in South 8.0 mph 13.0 mph 90% 0.07 in 0.00 W/m2
Foresthill Weather
 WU-history PHP script courtesy of   Juneau County Weather.
powered by Cumulus v1.9.3 (1059)
Ambient Weather VWS v14.00
Top Contact Website Map Copyright © 2007 - 2018 Foresthillweather.com Never base important decisions on this or any weather information obtained from the Internet